Time;durP1;ratioP1;P1;durP2;ratioP2;P2;SDS_P1;SDS_P2;PMS_P1;PMS_P2;Temp;Humidity;BMP_temperature;BMP_pressure;BME280_temperature;BME280_humidity;BME280_pressure;Samples;Min_cycle;Max_cycle;Signal;HPM_P1;HPM_P2
2021/04/19 04:37:59;;;;;;;20.35;15.38;;;;;;;7.03;90.38;100142.97;1703024;82;21167;-42
2021/04/19 04:40:30;;;;;;;23.95;15.83;;;;;;;6.99;90.24;100142.91;1729939;81;21180;-37
2021/04/19 04:43:14;;;;;;;18.92;13.85;;;;;;;7.01;90.51;100138.58;1733049;81;21610;-36
2021/04/19 04:45:42;;;;;;;21.77;14.65;;;;;;;7.05;90.51;100137.77;1733355;81;21300;-35
2021/04/19 04:48:21;;;;;;;21.15;15.35;;;;;;;7.08;90.33;100138.69;1730930;81;21186;-40
2021/04/19 04:50:59;;;;;;;19.95;14.50;;;;;;;7.10;90.00;100141.30;1730636;82;21127;-38
2021/04/19 04:53:35;;;;;;;18.77;14.47;;;;;;;7.10;90.07;100139.57;1733403;80;21190;-35
2021/04/19 04:56:04;;;;;;;18.55;13.78;;;;;;;7.13;89.75;100142.63;1729627;80;21233;-41
2021/04/19 04:58:32;;;;;;;20.32;13.40;;;;;;;7.14;89.97;100139.19;1682721;83;21169;-36
2021/04/19 05:01:02;;;;;;;18.52;13.58;;;;;;;7.19;89.95;100138.39;1682800;83;21183;-37
2021/04/19 05:03:31;;;;;;;18.07;13.38;;;;;;;7.24;89.43;100136.24;1658934;85;21215;-35
2021/04/19 05:06:02;;;;;;;19.48;14.13;;;;;;;7.27;89.21;100133.26;1681393;83;21251;-35
2021/04/19 05:08:30;;;;;;;18.25;13.15;;;;;;;7.31;88.81;100135.05;1681813;83;21635;-42
2021/04/19 05:11:04;;;;;;;15.13;11.70;;;;;;;7.35;88.20;100132.03;1729273;81;21686;-41
2021/04/19 05:13:44;;;;;;;19.05;11.03;;;;;;;7.37;87.68;100136.41;1729697;80;21170;-40
2021/04/19 05:16:12;;;;;;;14.23;11.00;;;;;;;7.40;87.55;100132.52;1726117;81;21193;-41
2021/04/19 05:18:41;;;;;;;17.32;12.68;;;;;;;7.44;87.04;100133.00;1731180;80;21178;-35
2021/04/19 05:21:10;;;;;;;16.70;12.33;;;;;;;7.47;86.71;100133.45;1730845;81;21091;-37
2021/04/19 05:23:53;;;;;;;16.65;13.05;;;;;;;7.45;86.86;100132.58;1727585;81;21313;-42
2021/04/19 05:26:48;;;;;;;19.40;12.40;;;;;;;7.43;86.91;100134.30;1722754;81;21214;-43
2021/04/19 05:29:20;;;;;;;16.70;12.00;;;;;;;7.37;86.73;100140.75;1683899;83;21494;-37
2021/04/19 05:31:50;;;;;;;17.02;12.95;;;;;;;7.35;86.93;100141.14;1721072;81;21304;-49
2021/04/19 05:34:18;;;;;;;16.93;12.33;;;;;;;7.34;86.96;100139.39;1725345;81;22203;-42
2021/04/19 05:36:52;;;;;;;13.90;10.58;;;;;;;7.33;86.49;100142.43;1725004;81;21949;-43
2021/04/19 05:43:55;;;;;;;13.22;9.20;;;;;;;7.38;85.99;100135.55;1692946;82;21113;-42
2021/04/19 05:47:30;;;;;;;14.47;9.88;;;;;;;7.46;85.79;100134.31;1688791;82;21091;-36
2021/04/19 05:51:00;;;;;;;15.72;11.00;;;;;;;7.50;84.77;100126.98;1729046;80;21174;-39
2021/04/19 05:53:56;;;;;;;11.48;9.03;;;;;;;7.46;84.80;100126.50;1720109;81;21166;-42
2021/04/19 05:56:39;;;;;;;12.00;9.03;;;;;;;7.42;84.84;100129.52;1723161;82;21568;-42
2021/04/19 05:59:22;;;;;;;10.13;8.43;;;;;;;7.45;84.45;100128.23;1726229;81;21175;-48
2021/04/19 06:01:52;;;;;;;10.18;8.18;;;;;;;7.47;84.27;100130.41;1728210;80;21677;-38
2021/04/19 06:04:46;;;;;;;10.90;8.60;;;;;;;7.55;84.33;100130.52;1726124;80;21189;-37
2021/04/19 06:07:24;;;;;;;10.03;8.03;;;;;;;7.62;83.99;100121.02;1729186;80;21166;-42
2021/04/19 06:10:49;;;;;;;10.65;9.08;;;;;;;7.77;83.88;100135.50;1775636;78;29284;-42
2021/04/19 06:13:24;;;;;;;12.03;8.85;;;;;;;7.87;82.87;100141.20;1747321;80;21150;-41
2021/04/19 06:15:53;;;;;;;11.70;7.90;;;;;;;7.98;81.83;100138.26;1753616;81;21198;-37
2021/04/19 06:18:25;;;;;;;12.68;8.28;;;;;;;8.05;81.07;100140.47;1750543;80;21137;-42
2021/04/19 06:20:57;;;;;;;8.60;7.30;;;;;;;8.10;80.05;100143.13;1749086;80;21378;-41
2021/04/19 06:23:26;;;;;;;12.60;8.03;;;;;;;8.13;80.22;100132.73;1704495;81;21214;-43
2021/04/19 06:26:51;;;;;;;10.50;7.55;;;;;;;8.19;80.37;100141.47;1722601;81;21220;-41
2021/04/19 06:46:45;;;;;;;8.73;6.95;;;;;;;8.50;76.91;100152.99;1722807;81;21155;-41
2021/04/19 06:49:14;;;;;;;10.28;7.90;;;;;;;8.23;77.19;100151.47;1724440;81;21213;-41
2021/04/19 06:51:43;;;;;;;9.23;7.42;;;;;;;8.12;78.23;100155.75;1725621;82;21571;-41
2021/04/19 06:54:12;;;;;;;11.80;8.50;;;;;;;8.07;78.39;100153.54;1723374;81;21831;-43
2021/04/19 06:56:42;;;;;;;14.38;10.25;;;;;;;8.02;78.46;100139.59;1693136;83;21163;-42
2021/04/19 06:59:16;;;;;;;10.10;7.60;;;;;;;8.00;78.67;100131.75;1700686;83;21171;-36
2021/04/19 07:01:45;;;;;;;15.53;10.43;;;;;;;8.03;78.64;100127.88;1700798;83;21313;-42
2021/04/19 07:04:14;;;;;;;15.10;9.68;;;;;;;8.11;78.91;100127.92;1720918;81;21447;-42
2021/04/19 07:06:44;;;;;;;23.15;14.55;;;;;;;8.19;78.47;100130.17;1672860;84;21190;-42
2021/04/19 07:09:28;;;;;;;27.95;16.07;;;;;;;8.25;78.27;100135.42;1713269;80;21976;-42
2021/04/19 07:11:58;;;;;;;34.15;18.98;;;;;;;8.32;78.01;100133.30;1687735;83;21188;-37
2021/04/19 07:14:29;;;;;;;32.20;17.82;;;;;;;8.37;77.04;100136.84;1741476;81;21178;-36
2021/04/19 07:17:15;;;;;;;27.17;15.73;;;;;;;8.38;76.46;100137.70;1746246;80;21159;-36
2021/04/19 07:19:50;;;;;;;25.82;14.30;;;;;;;8.41;76.77;100137.75;1737560;80;21947;-41
2021/04/19 07:22:35;;;;;;;21.60;13.25;;;;;;;8.46;76.10;100130.36;1715964;80;21210;-41
2021/04/19 07:25:55;;;;;;;23.05;13.10;;;;;;;8.52;75.57;100133.03;1744009;80;21619;-36
2021/04/19 07:44:57;;;;;;;6.55;5.85;;;;;;;8.67;73.52;100117.02;1740138;80;21137;-42
2021/04/19 07:48:01;;;;;;;6.08;5.45;;;;;;;8.84;72.90;100116.66;1743061;80;21681;-43
2021/04/19 07:50:39;;;;;;;6.05;5.05;;;;;;;9.00;71.79;100113.25;1743892;80;21176;-42
2021/04/19 07:53:09;;;;;;;8.50;4.65;;;;;;;9.04;70.74;100119.33;1741267;80;21625;-37
2021/04/19 07:58:21;;;;;;;6.25;5.37;;;;;;;9.11;70.82;100122.86;1796848;78;23337;-37
2021/04/19 08:00:51;;;;;;;4.75;4.10;;;;;;;9.13;70.04;100123.29;1768453;80;21170;-38
2021/04/19 08:03:22;;;;;;;5.60;4.58;;;;;;;9.18;69.69;100123.31;1769643;79;21136;-37
2021/04/19 08:05:52;;;;;;;4.55;4.08;;;;;;;9.23;68.76;100126.81;1765330;79;21324;-42
2021/04/19 08:08:37;;;;;;;4.45;3.83;;;;;;;9.24;68.19;100124.19;1763748;80;21304;-38
2021/04/19 08:11:15;;;;;;;5.62;4.78;;;;;;;9.25;68.50;100129.84;1769705;80;21300;-36
2021/04/19 08:14:52;;;;;;;4.00;3.60;;;;;;;9.35;68.33;100126.84;1765816;79;21153;-42
2021/04/19 08:22:28;;;;;;;5.67;4.25;;;;;;;9.64;67.50;100128.63;1764503;79;21146;-37
2021/04/19 08:25:55;;;;;;;7.10;5.12;;;;;;;9.83;66.96;100121.23;1760579;80;21599;-36
2021/04/19 08:28:25;;;;;;;4.85;4.37;;;;;;;9.94;65.89;100120.80;1764114;79;21674;-42
2021/04/19 08:30:55;;;;;;;4.72;4.05;;;;;;;10.00;66.11;100112.08;1762071;79;21163;-42
2021/04/19 08:33:25;;;;;;;4.70;4.30;;;;;;;10.16;65.62;100111.64;1769174;79;21146;-42
2021/04/19 08:35:55;;;;;;;6.60;3.62;;;;;;;10.32;65.10;100117.29;1767204;79;21568;-42
2021/04/19 08:38:24;;;;;;;3.27;2.98;;;;;;;10.43;64.27;100126.42;1768894;79;21794;-42
2021/04/19 08:40:54;;;;;;;4.40;3.60;;;;;;;10.46;64.08;100129.92;1771384;80;21154;-36
2021/04/19 08:43:28;;;;;;;3.80;3.40;;;;;;;10.54;64.56;100133.81;1765402;79;21620;-37
2021/04/19 08:46:06;;;;;;;5.28;3.75;;;;;;;10.69;63.76;100123.76;1739557;80;21183;-35
2021/04/19 08:48:39;;;;;;;5.00;3.47;;;;;;;10.91;63.51;100126.30;1771382;80;21596;-42
2021/04/19 08:51:12;;;;;;;4.15;3.27;;;;;;;11.17;62.97;100120.05;1771747;79;22026;-42
2021/04/19 08:53:58;;;;;;;3.80;3.50;;;;;;;11.41;61.71;100117.29;1733655;80;21301;-36
2021/04/19 08:56:27;;;;;;;6.17;3.50;;;;;;;11.58;61.24;100117.18;1763427;80;21155;-35
2021/04/19 08:58:55;;;;;;;3.72;3.37;;;;;;;11.70;60.12;100118.84;1749969;80;21220;-37
2021/04/19 09:01:23;;;;;;;3.22;2.92;;;;;;;11.91;60.14;100112.61;1752014;80;21155;-37
2021/04/19 09:04:06;;;;;;;4.22;3.83;;;;;;;12.16;59.05;100108.88;1720266;81;21639;-36
2021/04/19 09:06:43;;;;;;;4.20;3.80;;;;;;;12.26;58.57;100104.42;1748167;80;21132;-37
2021/04/19 09:09:34;;;;;;;3.80;3.50;;;;;;;12.33;57.49;100110.02;1744886;81;21165;-36
2021/04/19 09:12:16;;;;;;;4.15;3.75;;;;;;;12.26;56.10;100108.36;1745934;80;21163;-40
2021/04/19 09:14:57;;;;;;;4.05;3.70;;;;;;;12.11;57.45;100111.98;1745569;80;21116;-37
2021/04/19 09:17:33;;;;;;;4.15;3.75;;;;;;;12.13;56.93;100112.86;1749540;80;21187;-36
2021/04/19 09:20:13;;;;;;;3.98;3.58;;;;;;;12.11;57.54;100116.36;1724583;81;21199;-35
2021/04/19 09:22:41;;;;;;;3.42;3.12;;;;;;;12.16;56.62;100101.00;1744403;80;21159;-37
2021/04/19 09:29:41;;;;;;;4.23;3.57;;;;;;;12.59;56.61;100102.34;1747670;80;21201;-37
2021/04/19 09:41:21;;;;;;;3.75;3.10;;;;;;;13.05;53.09;100096.08;1751478;80;21222;-44
2021/04/19 09:44:27;;;;;;;3.05;2.85;;;;;;;13.04;53.91;100095.22;1732375;80;21167;-43
2021/04/19 09:46:56;;;;;;;2.80;2.58;;;;;;;13.28;52.94;100099.74;1746374;80;21120;-45
2021/04/19 09:49:25;;;;;;;2.42;2.22;;;;;;;13.44;52.26;100089.86;1748899;80;21182;-38
2021/04/19 09:52:02;;;;;;;2.60;2.40;;;;;;;13.63;52.10;100088.70;1704929;82;21297;-38
2021/04/19 09:54:32;;;;;;;2.67;2.42;;;;;;;13.65;51.46;100088.67;1721995;80;21178;-42
2021/04/19 09:57:10;;;;;;;3.17;2.50;;;;;;;13.70;51.47;100082.45;1751586;80;21174;-43
2021/04/19 09:59:38;;;;;;;3.45;3.15;;;;;;;13.79;50.84;100083.59;1759694;80;21199;-36
2021/04/19 10:02:08;;;;;;;2.65;2.45;;;;;;;13.77;51.34;100075.33;1749416;80;21695;-42
2021/04/19 10:04:36;;;;;;;4.45;2.27;;;;;;;13.83;51.00;100073.45;1714706;80;21630;-39
2021/04/19 10:07:05;;;;;;;2.42;2.22;;;;;;;13.76;50.53;100067.89;1751870;80;21345;-43
2021/04/19 10:14:27;;;;;;;2.10;1.90;;;;;;;13.85;51.07;100069.03;1742092;80;21207;-37
2021/04/19 10:17:35;;;;;;;2.20;2.00;;;;;;;14.14;50.60;100068.97;1744946;80;21645;-37
2021/04/19 10:20:48;;;;;;;2.23;2.03;;;;;;;14.52;49.83;100059.53;1754462;80;21123;-43
2021/04/19 10:23:43;;;;;;;2.23;2.03;;;;;;;14.69;49.07;100056.56;1754721;80;21723;-37
2021/04/19 10:26:32;;;;;;;4.87;2.00;;;;;;;14.88;48.63;100055.27;1754405;80;21279;-44
2021/04/19 10:29:20;;;;;;;2.00;1.90;;;;;;;15.13;48.00;100059.55;1736897;80;21165;-42
2021/04/19 10:32:00;;;;;;;1.82;1.60;;;;;;;15.38;46.68;100055.92;1752844;80;21566;-42
2021/04/19 10:34:32;;;;;;;1.55;1.45;;;;;;;15.33;46.03;100056.02;1684330;82;21350;-43
2021/04/19 10:37:07;;;;;;;1.82;1.60;;;;;;;15.26;45.86;100056.20;1754835;80;22304;-36
2021/04/19 10:39:46;;;;;;;1.30;1.15;;;;;;;15.24;46.08;100050.95;1759519;80;21602;-38
2021/04/19 10:42:28;;;;;;;2.15;1.70;;;;;;;15.30;45.79;100041.58;1752232;80;21207;-41
2021/04/19 10:44:55;;;;;;;2.30;2.10;;;;;;;15.43;46.12;100038.23;1751719;80;21784;-39
2021/04/19 10:47:30;;;;;;;2.08;1.70;;;;;;;15.68;45.18;100035.88;1757129;80;21725;-42
2021/04/19 10:50:03;;;;;;;1.37;1.27;;;;;;;15.85;44.89;100037.64;1755420;80;21270;-41
2021/04/19 10:52:39;;;;;;;1.60;1.47;;;;;;;15.99;44.39;100034.63;1752877;80;21152;-36
2021/04/19 10:55:11;;;;;;;2.12;1.60;;;;;;;16.03;44.28;100038.07;1755151;80;21662;-44
2021/04/19 10:57:41;;;;;;;1.85;1.47;;;;;;;16.11;44.05;100040.04;1757556;80;21143;-41
2021/04/19 11:00:10;;;;;;;1.45;1.35;;;;;;;16.09;43.35;100043.19;1760718;80;21192;-38
2021/04/19 11:03:01;;;;;;;1.50;1.22;;;;;;;16.15;42.49;100039.92;1757924;80;21190;-37
2021/04/19 11:05:37;;;;;;;1.62;1.42;;;;;;;16.30;41.86;100039.11;1766394;80;21337;-37
2021/04/19 11:08:08;;;;;;;1.52;1.42;;;;;;;16.28;41.77;100046.19;1758950;80;21175;-41
2021/04/19 11:10:37;;;;;;;1.37;1.27;;;;;;;16.16;42.30;100042.11;1715274;80;21193;-41
2021/04/19 11:13:08;;;;;;;1.67;1.20;;;;;;;16.18;42.53;100034.58;1756466;80;21142;-42
2021/04/19 11:15:45;;;;;;;1.02;0.93;;;;;;;16.25;42.21;100034.41;1762197;80;21194;-42
2021/04/19 11:18:30;;;;;;;2.45;1.50;;;;;;;16.36;41.88;100029.25;1726344;80;21984;-37
2021/04/19 11:21:01;;;;;;;1.20;1.10;;;;;;;16.39;41.75;100030.92;1735717;80;21201;-37
2021/04/19 11:23:32;;;;;;;1.50;1.30;;;;;;;16.38;42.03;100023.91;1764398;80;21167;-36
2021/04/19 11:26:05;;;;;;;1.57;1.47;;;;;;;16.38;41.86;100023.91;1767195;80;21168;-41
2021/04/19 11:28:34;;;;;;;1.50;1.40;;;;;;;16.52;41.95;100027.02;1757843;80;21614;-41
2021/04/19 11:31:19;;;;;;;2.12;1.85;;;;;;;16.64;42.14;100029.33;1729904;80;21523;-42
2021/04/19 11:33:50;;;;;;;1.65;1.25;;;;;;;16.62;41.86;100037.73;1767183;80;21296;-38
2021/04/19 11:36:20;;;;;;;2.20;1.80;;;;;;;16.53;41.99;100035.38;1752840;80;21183;-36
2021/04/19 11:38:48;;;;;;;1.92;1.70;;;;;;;16.42;42.44;100026.44;1769107;80;21329;-40
2021/04/19 11:41:16;;;;;;;1.65;1.55;;;;;;;16.37;41.90;100034.07;1754804;80;21164;-37
2021/04/19 11:43:51;;;;;;;1.80;1.57;;;;;;;16.30;42.26;100028.09;1767368;80;21575;-47
2021/04/19 11:46:22;;;;;;;1.60;1.50;;;;;;;16.30;42.25;100028.09;1764116;80;21930;-39
2021/04/19 11:48:50;;;;;;;2.70;1.47;;;;;;;16.39;42.41;100027.83;1763828;80;21332;-35
2021/04/19 11:51:19;;;;;;;3.42;1.40;;;;;;;16.51;41.35;100027.93;1762328;80;21154;-38
2021/04/19 11:53:49;;;;;;;1.50;1.40;;;;;;;16.56;41.48;100021.20;1761608;80;21232;-41
2021/04/19 11:56:18;;;;;;;1.62;1.52;;;;;;;16.57;41.65;100030.39;1764294;80;21656;-36
2021/04/19 11:58:48;;;;;;;1.50;1.40;;;;;;;16.62;41.64;100017.06;1759095;80;21309;-37
2021/04/19 12:01:19;;;;;;;2.77;1.67;;;;;;;16.69;41.47;100028.72;1763410;80;21958;-42
2021/04/19 12:03:51;;;;;;;1.70;1.60;;;;;;;16.70;40.69;100017.30;1765771;80;21650;-37
2021/04/19 12:06:20;;;;;;;2.72;1.80;;;;;;;16.72;41.04;100018.11;1762948;80;21123;-36
2021/04/19 12:08:49;;;;;;;1.42;1.32;;;;;;;16.77;40.85;100019.30;1759623;80;21164;-42
2021/04/19 12:11:21;;;;;;;2.17;1.98;;;;;;;16.73;40.51;100025.12;1758722;80;21648;-41
2021/04/19 12:14:00;;;;;;;1.35;1.25;;;;;;;16.63;40.81;100021.43;1772799;80;21309;-42
2021/04/19 12:16:29;;;;;;;2.47;2.25;;;;;;;16.54;41.00;100021.72;1760360;80;21220;-42
2021/04/19 12:18:57;;;;;;;1.95;1.70;;;;;;;16.44;41.23;100017.14;1775702;80;21553;-41
2021/04/19 12:21:26;;;;;;;1.40;1.30;;;;;;;16.38;41.08;100014.22;1774480;80;21451;-37
2021/04/19 12:23:53;;;;;;;1.82;1.70;;;;;;;16.26;41.48;100007.97;1777674;80;21678;-42
2021/04/19 12:26:21;;;;;;;2.08;1.87;;;;;;;16.24;41.90;100009.80;1761094;80;21588;-37
2021/04/19 12:28:51;;;;;;;2.15;1.90;;;;;;;16.14;42.05;100011.81;1775124;80;21615;-42
2021/04/19 12:31:19;;;;;;;2.08;1.87;;;;;;;16.14;41.76;100004.34;1755245;80;21184;-43
2021/04/19 12:33:48;;;;;;;1.57;1.47;;;;;;;16.19;41.81;100013.87;1765989;80;21173;-43
2021/04/19 12:36:18;;;;;;;2.05;1.47;;;;;;;16.33;41.22;100001.59;1762695;80;21153;-37
2021/04/19 12:38:47;;;;;;;1.80;1.70;;;;;;;16.54;41.15;100000.59;1762879;80;21127;-37
2021/04/19 12:41:15;;;;;;;2.27;1.90;;;;;;;16.70;41.25;100000.13;1762242;80;21176;-44
2021/04/19 12:43:44;;;;;;;2.87;2.35;;;;;;;16.82;40.32;99997.58;1772840;80;21178;-36
2021/04/19 12:46:12;;;;;;;1.60;1.50;;;;;;;16.86;40.06;99995.69;1756806;80;21971;-42
2021/04/19 12:48:39;;;;;;;1.70;1.60;;;;;;;16.96;39.53;99984.80;1761676;80;21305;-39
2021/04/19 12:51:09;;;;;;;2.05;1.80;;;;;;;17.02;39.40;99984.59;1758316;80;21243;-42
2021/04/19 12:53:37;;;;;;;2.42;1.82;;;;;;;17.10;39.09;99975.10;1760865;80;21215;-44
2021/04/19 12:56:06;;;;;;;3.40;1.92;;;;;;;17.05;38.88;99976.16;1760996;80;21179;-39
2021/04/19 12:58:33;;;;;;;2.30;2.08;;;;;;;16.82;39.22;99987.01;1764640;80;21178;-39
2021/04/19 13:01:02;;;;;;;2.37;2.15;;;;;;;16.73;39.71;99984.17;1753189;80;21187;-37
